Thunder radar more information blitzortung!


Radar de pluja more information rain snow radar


Visita la nostra xarxa de llocs de meteo:

Template documentation
and downloads

And another site



No particular awareness of the weather is required.    There are no Weather-warnings

Pagina Historial Weather Underground text

Diari Resum May 27, 2017 Unitats:  Mètric    Imperial   Tant
« Previous Dia
SegĂźent Dia »
Diari Setmana Mensual Anual Personalitzada
  Maxima: Minima: Media:
Temperatura: 26.9 °C 15.6 °C 21.8 °C
Punt de rosada: 15.9 °C 10.3 °C 13.4 °C
Humitat: 82 % 38 % 61 %
Wind Speed: 20.4 km/h 0.0 km/h 7.3 km/h
RĂ fegues de vent: 20.4 km/h - -
Vent:- - East
Pression baro: 1019.9 hPa 1014.8 hPa -
Precipitacions: 0.0 mm    
Historical Graphs
 
 
Dades de taula per May 27, 2017
Temps Temperatura Punt de rosada Pression baro Vent Wind Speed RĂ fegues de vent Humitat Rainfall Rate (Hourly)
00:00 17.4 °C 14.1 °C 1015.8 hPa ENE 4.8 km/h 8.0 km/h 81 % 0.0 mm
00:02 17.6 °C 13.5 °C 1014.8 hPa ENE 5.8 km/h 5.8 km/h 77 % 0.0 mm
00:07 17.5 °C 13.6 °C 1014.8 hPa NNE 7.9 km/h 7.9 km/h 78 % 0.0 mm
00:10 17.4 °C 14.1 °C 1015.8 hPa NE 4.8 km/h 9.7 km/h 81 % 0.0 mm
00:20 17.4 °C 14.1 °C 1015.8 hPa NE 3.2 km/h 9.7 km/h 81 % 0.0 mm
00:30 17.4 °C 14.1 °C 1015.8 hPa ENE 9.7 km/h 9.7 km/h 81 % 0.0 mm
00:40 17.2 °C 13.9 °C 1016.8 hPa ENE 9.7 km/h 12.9 km/h 81 % 0.0 mm
00:50 17.1 °C 14.0 °C 1016.8 hPa NE 8.0 km/h 9.7 km/h 82 % 0.0 mm
01:00 17.1 °C 14.0 °C 1015.8 hPa NE 8.0 km/h 9.7 km/h 82 % 0.0 mm
01:10 17.2 °C 14.1 °C 1015.8 hPa NE 4.8 km/h 9.7 km/h 82 % 0.0 mm
01:20 17.2 °C 14.1 °C 1015.8 hPa NE 4.8 km/h 9.7 km/h 82 % 0.0 mm
01:30 17.2 °C 14.1 °C 1016.8 hPa NE 8.0 km/h 9.7 km/h 82 % 0.0 mm
01:40 17.1 °C 14.0 °C 1017.8 hPa ENE 8.0 km/h 9.7 km/h 82 % 0.0 mm
01:50 17.1 °C 14.0 °C 1017.8 hPa NE 4.8 km/h 9.7 km/h 82 % 0.0 mm
02:00 17.1 °C 13.8 °C 1017.8 hPa NE 9.7 km/h 9.7 km/h 81 % 0.0 mm
02:10 17.2 °C 13.9 °C 1017.8 hPa Calm   8.0 km/h 81 % 0.0 mm
02:20 17.3 °C 13.8 °C 1017.8 hPa NE 4.8 km/h 6.4 km/h 80 % 0.0 mm
02:30 17.5 °C 14.0 °C 1017.8 hPa Calm   3.2 km/h 80 % 0.0 mm
02:40 17.6 °C 14.1 °C 1017.8 hPa NE 4.8 km/h 6.4 km/h 80 % 0.0 mm
03:00 17.8 °C 14.1 °C 1017.8 hPa NE 4.8 km/h 8.0 km/h 79 % 0.0 mm
03:10 18.0 °C 14.1 °C 1017.8 hPa NE 3.2 km/h 6.4 km/h 78 % 0.0 mm
03:20 18.2 °C 14.3 °C 1017.8 hPa NE 3.2 km/h 4.8 km/h 78 % 0.0 mm
03:30 18.2 °C 14.3 °C 1017.8 hPa ENE 3.2 km/h 4.8 km/h 78 % 0.0 mm
03:40 18.3 °C 14.4 °C 1017.8 hPa ENE 4.8 km/h 6.4 km/h 78 % 0.0 mm
03:50 18.3 °C 14.4 °C 1017.8 hPa NE 3.2 km/h 6.4 km/h 78 % 0.0 mm
04:00 18.5 °C 14.6 °C 1017.8 hPa Calm   4.8 km/h 78 % 0.0 mm
04:10 18.8 °C 14.7 °C 1017.8 hPa Calm   3.2 km/h 77 % 0.0 mm
04:20 19.1 °C 14.8 °C 1017.8 hPa ESE 1.6 km/h 3.2 km/h 76 % 0.0 mm
04:30 19.3 °C 14.8 °C 1017.8 hPa ESE 3.2 km/h 3.2 km/h 75 % 0.0 mm
04:40 19.7 °C 15.2 °C 1017.8 hPa ESE 1.6 km/h 3.2 km/h 75 % 0.0 mm
04:50 20.2 °C 15.4 °C 1017.8 hPa ESE 1.6 km/h 8.0 km/h 74 % 0.0 mm
05:00 20.7 °C 15.4 °C 1017.8 hPa South 3.2 km/h 6.4 km/h 72 % 0.0 mm
05:10 21.2 °C 15.7 °C 1017.8 hPa SSW 1.6 km/h 4.8 km/h 71 % 0.0 mm
05:20 21.5 °C 15.8 °C 1017.8 hPa ENE 3.2 km/h 8.0 km/h 70 % 0.0 mm
05:30 21.6 °C 15.7 °C 1017.8 hPa East 3.2 km/h 8.0 km/h 69 % 0.0 mm
05:40 21.9 °C 15.7 °C 1017.8 hPa East 4.8 km/h 6.4 km/h 68 % 0.0 mm
05:50 22.0 °C 15.6 °C 1017.8 hPa ENE 4.8 km/h 6.4 km/h 67 % 0.0 mm
06:00 22.2 °C 15.3 °C 1018.8 hPa East 8.0 km/h 9.7 km/h 65 % 0.0 mm
06:10 22.3 °C 15.4 °C 1018.8 hPa East 4.8 km/h 12.9 km/h 65 % 0.0 mm
06:20 22.9 °C 15.5 °C 1018.8 hPa East 3.2 km/h 12.9 km/h 63 % 0.0 mm
06:30 23.6 °C 15.9 °C 1018.8 hPa East 3.2 km/h 6.4 km/h 62 % 0.0 mm
06:40 23.3 °C 15.6 °C 1018.8 hPa East 4.8 km/h 14.5 km/h 62 % 0.0 mm
06:50 23.5 °C 15.3 °C 1018.8 hPa ESE 4.8 km/h 12.9 km/h 60 % 0.0 mm
07:00 23.5 °C 15.6 °C 1018.8 hPa ESE 4.8 km/h 8.0 km/h 61 % 0.0 mm
07:10 23.8 °C 15.6 °C 1018.8 hPa East 8.0 km/h 9.7 km/h 60 % 0.0 mm
07:20 24.5 °C 15.7 °C 1018.8 hPa ESE 4.8 km/h 8.0 km/h 58 % 0.0 mm
07:30 24.0 °C 15.2 °C 1018.8 hPa East 3.2 km/h 11.3 km/h 58 % 0.0 mm
07:40 24.3 °C 15.5 °C 1018.8 hPa East 8.0 km/h 14.5 km/h 58 % 0.0 mm
07:50 24.4 °C 15.6 °C 1018.8 hPa East 4.8 km/h 12.9 km/h 58 % 0.0 mm
08:00 25.1 °C 15.7 °C 1018.8 hPa ESE 4.8 km/h 6.4 km/h 56 % 0.0 mm
08:10 24.9 °C 15.2 °C 1019.9 hPa East 8.0 km/h 12.9 km/h 55 % 0.0 mm
08:20 24.7 °C 15.1 °C 1019.9 hPa East 9.7 km/h 12.9 km/h 55 % 0.0 mm
08:30 25.3 °C 15.1 °C 1018.8 hPa East 8.0 km/h 11.3 km/h 53 % 0.0 mm
13:37 25.5 °C 15.2 °C 1018.8 hPa ESE 13.0 km/h 13.0 km/h 53 % 0.0 mm
13:42 26.0 °C 15.4 °C 1018.8 hPa East 11.1 km/h 11.1 km/h 52 % 0.0 mm
13:47 25.7 °C 15.1 °C 1018.8 hPa East 9.3 km/h 9.3 km/h 52 % 0.0 mm
13:52 25.5 °C 14.9 °C 1019.9 hPa East 9.3 km/h 9.3 km/h 52 % 0.0 mm
13:57 25.7 °C 14.8 °C 1019.9 hPa SSE 15.8 km/h 15.8 km/h 51 % 0.0 mm
14:02 25.7 °C 14.8 °C 1019.9 hPa ESE 9.5 km/h 9.5 km/h 51 % 0.0 mm
14:07 25.6 °C 14.4 °C 1018.8 hPa SSE 10.0 km/h 10.0 km/h 50 % 0.0 mm
14:12 26.0 °C 14.8 °C 1018.8 hPa ESE 11.1 km/h 11.1 km/h 50 % 0.0 mm
14:17 25.8 °C 14.3 °C 1018.8 hPa East 9.3 km/h 9.5 km/h 49 % 0.0 mm
14:20 25.6 °C 14.1 °C 1018.8 hPa SSE 14.8 km/h 14.8 km/h 49 % 0.0 mm
14:25 26.0 °C 14.4 °C 1018.8 hPa East 13.0 km/h 13.0 km/h 49 % 0.0 mm
14:30 25.9 °C 14.1 °C 1018.8 hPa SE 11.1 km/h 11.1 km/h 48 % 0.0 mm
14:35 25.5 °C 13.7 °C 1018.8 hPa ESE 11.1 km/h 11.1 km/h 48 % 0.0 mm
14:40 25.8 °C 13.9 °C 1018.8 hPa ENE 11.1 km/h 11.1 km/h 48 % 0.0 mm
14:45 25.6 °C 13.4 °C 1018.8 hPa East 16.7 km/h 16.7 km/h 47 % 0.0 mm
14:50 25.7 °C 13.6 °C 1017.8 hPa SE 14.8 km/h 14.8 km/h 47 % 0.0 mm
14:55 26.3 °C 13.8 °C 1017.8 hPa ESE 13.0 km/h 13.0 km/h 46 % 0.0 mm
15:00 26.0 °C 13.2 °C 1017.8 hPa ESE 15.6 km/h 15.6 km/h 45 % 0.0 mm
15:05 25.7 °C 12.9 °C 1017.8 hPa East 13.0 km/h 13.0 km/h 45 % 0.0 mm
15:10 25.9 °C 12.7 °C 1017.8 hPa NNE 18.5 km/h 18.5 km/h 44 % 0.0 mm
15:15 25.7 °C 12.2 °C 1017.8 hPa ESE 18.5 km/h 18.5 km/h 43 % 0.0 mm
15:20 25.8 °C 12.3 °C 1017.8 hPa East 11.1 km/h 11.1 km/h 43 % 0.0 mm
15:25 25.9 °C 12.3 °C 1017.8 hPa SW 13.0 km/h 13.0 km/h 43 % 0.0 mm
15:30 26.3 °C 12.7 °C 1017.8 hPa SSE 13.0 km/h 13.0 km/h 43 % 0.0 mm
15:35 26.5 °C 13.3 °C 1017.8 hPa ENE 9.5 km/h 9.5 km/h 44 % 0.0 mm
15:40 26.2 °C 12.6 °C 1017.8 hPa ESE 9.7 km/h 9.7 km/h 43 % 0.0 mm
15:45 26.7 °C 12.7 °C 1017.8 hPa SE 9.3 km/h 9.3 km/h 42 % 0.0 mm
15:50 26.9 °C 12.9 °C 1017.8 hPa SE 7.4 km/h 7.4 km/h 42 % 0.0 mm
15:55 26.9 °C 12.6 °C 1017.8 hPa SSE 9.3 km/h 9.3 km/h 41 % 0.0 mm
16:00 26.5 °C 12.2 °C 1017.8 hPa SE 16.7 km/h 16.7 km/h 41 % 0.0 mm
16:05 26.9 °C 12.2 °C 1017.8 hPa ESE 13.0 km/h 13.0 km/h 40 % 0.0 mm
16:10 26.2 °C 10.8 °C 1017.8 hPa SE 16.7 km/h 16.7 km/h 38 % 0.0 mm
16:15 26.2 °C 11.6 °C 1017.8 hPa SSE 11.1 km/h 11.1 km/h 40 % 0.0 mm
16:20 26.3 °C 11.6 °C 1017.8 hPa SE 13.0 km/h 13.0 km/h 40 % 0.0 mm
16:25 26.1 °C 11.1 °C 1017.8 hPa ENE 16.7 km/h 16.7 km/h 39 % 0.0 mm
16:30 26.1 °C 11.1 °C 1017.8 hPa SE 16.7 km/h 16.7 km/h 39 % 0.0 mm
16:35 25.7 °C 10.3 °C 1017.8 hPa ESE 14.0 km/h 14.0 km/h 38 % 0.0 mm
16:40 25.9 °C 10.9 °C 1017.8 hPa ESE 11.1 km/h 11.1 km/h 39 % 0.0 mm
16:45 25.9 °C 10.5 °C 1017.8 hPa ESE 16.9 km/h 16.9 km/h 38 % 0.0 mm
16:55 26.0 °C 11.3 °C 1016.8 hPa East 13.0 km/h 13.0 km/h 40 % 0.0 mm
17:00 26.1 °C 11.8 °C 1016.8 hPa SSE 14.8 km/h 14.8 km/h 41 % 0.0 mm
17:05 26.2 °C 12.3 °C 1016.8 hPa ESE 14.8 km/h 14.8 km/h 42 % 0.0 mm
17:10 26.0 °C 11.7 °C 1016.8 hPa ESE 12.2 km/h 12.2 km/h 41 % 0.0 mm
17:15 26.0 °C 12.1 °C 1016.8 hPa ENE 18.5 km/h 18.5 km/h 42 % 0.0 mm
17:20 26.0 °C 11.7 °C 1016.8 hPa East 13.0 km/h 13.0 km/h 41 % 0.0 mm
17:25 25.9 °C 12.0 °C 1016.8 hPa East 14.8 km/h 14.8 km/h 42 % 0.0 mm
17:26 26.0 °C 12.1 °C 1016.8 hPa ESE 12.6 km/h 12.6 km/h 42 % 0.0 mm
17:31 25.9 °C 12.0 °C 1016.8 hPa East 13.0 km/h 13.0 km/h 42 % 0.0 mm
17:36 25.9 °C 12.0 °C 1016.8 hPa ESE 20.4 km/h 20.4 km/h 42 % 0.0 mm
17:41 25.9 °C 12.0 °C 1016.8 hPa ESE 11.1 km/h 11.1 km/h 42 % 0.0 mm
17:46 25.8 °C 11.6 °C 1016.8 hPa ESE 14.8 km/h 14.8 km/h 41 % 0.0 mm
17:51 25.8 °C 11.9 °C 1016.8 hPa SE 14.8 km/h 14.8 km/h 42 % 0.0 mm
17:56 25.6 °C 11.4 °C 1016.8 hPa ESE 13.0 km/h 13.0 km/h 41 % 0.0 mm
18:01 25.6 °C 11.4 °C 1016.8 hPa ESE 10.0 km/h 10.0 km/h 41 % 0.0 mm
18:06 25.6 °C 11.0 °C 1016.8 hPa East 11.1 km/h 11.1 km/h 40 % 0.0 mm
18:11 25.3 °C 11.1 °C 1016.8 hPa ENE 20.4 km/h 20.4 km/h 41 % 0.0 mm
18:16 25.3 °C 11.1 °C 1016.8 hPa ESE 13.0 km/h 13.0 km/h 41 % 0.0 mm
18:21 25.2 °C 11.4 °C 1016.8 hPa ENE 14.8 km/h 14.8 km/h 42 % 0.0 mm
18:26 24.9 °C 11.8 °C 1016.8 hPa ENE 14.8 km/h 14.8 km/h 44 % 0.0 mm
18:31 24.8 °C 12.1 °C 1016.8 hPa SSE 18.5 km/h 18.5 km/h 45 % 0.0 mm
18:36 24.8 °C 12.4 °C 1015.8 hPa ESE 10.0 km/h 10.0 km/h 46 % 0.0 mm
18:41 24.7 °C 12.6 °C 1015.8 hPa SE 9.7 km/h 9.7 km/h 47 % 0.0 mm
18:46 24.5 °C 12.4 °C 1015.8 hPa ESE 10.0 km/h 10.0 km/h 47 % 0.0 mm
18:51 24.3 °C 12.3 °C 1015.8 hPa East 13.7 km/h 13.7 km/h 47 % 0.0 mm
18:56 24.3 °C 12.6 °C 1015.8 hPa ESE 13.0 km/h 13.0 km/h 48 % 0.0 mm
19:01 24.1 °C 12.4 °C 1015.8 hPa ESE 13.0 km/h 13.0 km/h 48 % 0.0 mm
19:06 24.1 °C 12.7 °C 1015.8 hPa ESE 7.4 km/h 7.9 km/h 49 % 0.0 mm
19:11 24.0 °C 12.6 °C 1015.8 hPa ESE 13.0 km/h 13.0 km/h 49 % 0.0 mm
19:16 23.8 °C 12.4 °C 1015.8 hPa East 13.0 km/h 13.0 km/h 49 % 0.0 mm
19:21 23.7 °C 12.7 °C 1016.8 hPa East 13.0 km/h 13.0 km/h 50 % 0.0 mm
19:26 23.6 °C 12.6 °C 1016.8 hPa SE 13.0 km/h 13.0 km/h 50 % 0.0 mm
19:30 18.6 °C 13.7 °C 1018.8 hPa Calm     73 % 0.0 mm
19:31 23.6 °C 12.6 °C 1016.8 hPa SE 9.3 km/h 9.3 km/h 50 % 0.0 mm
19:36 23.5 °C 12.8 °C 1016.8 hPa ESE 15.8 km/h 15.8 km/h 51 % 0.0 mm
19:40 18.5 °C 13.8 °C 1018.8 hPa NNE 1.6 km/h   74 % 0.0 mm
19:41 23.4 °C 12.7 °C 1016.8 hPa NNE 9.3 km/h 9.3 km/h 51 % 0.0 mm
19:46 23.2 °C 12.8 °C 1016.8 hPa ENE 11.9 km/h 11.9 km/h 52 % 0.0 mm
19:50 18.5 °C 13.8 °C 1018.8 hPa Calm   3.2 km/h 74 % 0.0 mm
19:51 22.9 °C 13.1 °C 1016.8 hPa East 14.8 km/h 14.8 km/h 54 % 0.0 mm
19:56 22.9 °C 13.1 °C 1016.8 hPa ENE 10.3 km/h 10.3 km/h 54 % 0.0 mm
20:00 18.4 °C 13.7 °C 1018.8 hPa NNE 1.6 km/h 3.2 km/h 74 % 0.0 mm
20:01 22.7 °C 13.2 °C 1016.8 hPa ENE 9.3 km/h 9.3 km/h 55 % 0.0 mm
20:06 22.7 °C 13.2 °C 1017.8 hPa East 5.8 km/h 5.8 km/h 55 % 0.0 mm
20:10 18.3 °C 13.8 °C 1018.8 hPa Calm   3.2 km/h 75 % 0.0 mm
20:11 22.5 °C 13.3 °C 1017.8 hPa ENE 9.3 km/h 9.3 km/h 56 % 0.0 mm
20:16 22.4 °C 13.2 °C 1017.8 hPa ENE 11.1 km/h 11.1 km/h 56 % 0.0 mm
20:20 18.2 °C 13.7 °C 1018.8 hPa Calm   1.6 km/h 75 % 0.0 mm
20:21 22.3 °C 13.6 °C 1017.8 hPa ESE 7.4 km/h 7.4 km/h 58 % 0.0 mm
20:23 22.2 °C 13.3 °C 1017.8 hPa NNE 7.4 km/h 7.4 km/h 57 % 0.0 mm
20:28 22.1 °C 13.2 °C 1017.8 hPa ESE 11.1 km/h 11.1 km/h 57 % 0.0 mm
20:30 18.0 °C 13.5 °C 1018.8 hPa NE 1.6 km/h 1.6 km/h 75 % 0.0 mm
20:33 22.0 °C 13.1 °C 1017.8 hPa ESE 7.4 km/h 7.4 km/h 57 % 0.0 mm
20:38 21.9 °C 13.3 °C 1017.8 hPa ESE 7.4 km/h 7.4 km/h 58 % 0.0 mm
20:40 18.0 °C 13.7 °C 1018.8 hPa Calm   1.6 km/h 76 % 0.0 mm
20:43 21.8 °C 13.2 °C 1017.8 hPa ENE 7.4 km/h 7.4 km/h 58 % 0.0 mm
20:48 21.7 °C 13.1 °C 1017.8 hPa East 7.4 km/h 7.4 km/h 58 % 0.0 mm
20:50 17.8 °C 13.5 °C 1018.8 hPa Calm     76 % 0.0 mm
20:53 21.6 °C 13.2 °C 1017.8 hPa ESE 5.6 km/h 5.6 km/h 59 % 0.0 mm
20:58 21.5 °C 13.2 °C 1017.8 hPa ESE 7.9 km/h 7.9 km/h 59 % 0.0 mm
21:00 17.7 °C 13.4 °C 1018.8 hPa Calm     76 % 0.0 mm
21:03 21.4 °C 13.3 °C 1017.8 hPa ENE 5.6 km/h 5.6 km/h 60 % 0.0 mm
21:08 21.3 °C 13.2 °C 1017.8 hPa East 4.7 km/h 4.7 km/h 60 % 0.0 mm
21:10 17.5 °C 13.2 °C 1018.8 hPa Calm   1.6 km/h 76 % 0.0 mm
21:13 21.1 °C 13.3 °C 1017.8 hPa ESE 7.4 km/h 7.4 km/h 61 % 0.0 mm
21:18 21.1 °C 13.6 °C 1017.8 hPa ESE 7.4 km/h 7.4 km/h 62 % 0.0 mm
21:20 17.2 °C 13.1 °C 1018.8 hPa Calm     77 % 0.0 mm
21:23 20.9 °C 13.3 °C 1017.8 hPa East 3.9 km/h 3.9 km/h 62 % 0.0 mm
21:28 20.8 °C 13.3 °C 1017.8 hPa East 5.6 km/h 5.6 km/h 62 % 0.0 mm
21:30 17.0 °C 12.9 °C 1018.8 hPa Calm     77 % 0.0 mm
21:33 20.7 °C 13.4 °C 1017.8 hPa East 5.0 km/h 5.0 km/h 63 % 0.0 mm
21:38 20.7 °C 13.4 °C 1018.8 hPa ENE 3.7 km/h 3.7 km/h 63 % 0.0 mm
21:40 16.9 °C 13.2 °C 1018.8 hPa Calm     79 % 0.0 mm
21:43 20.6 °C 13.3 °C 1018.8 hPa East 3.7 km/h 3.7 km/h 63 % 0.0 mm
21:48 20.5 °C 13.4 °C 1018.8 hPa East 1.9 km/h 1.9 km/h 64 % 0.0 mm
21:50 16.8 °C 13.1 °C 1018.8 hPa SW 1.6 km/h 1.6 km/h 79 % 0.0 mm
21:53 20.4 °C 13.3 °C 1016.8 hPa NE 3.7 km/h 3.7 km/h 64 % 0.0 mm
21:58 20.4 °C 13.3 °C 1016.8 hPa ENE 3.7 km/h 3.7 km/h 64 % 0.0 mm
22:00 16.8 °C 13.1 °C 1018.8 hPa Calm   1.6 km/h 79 % 0.0 mm
22:03 20.3 °C 13.5 °C 1016.8 hPa NNE 3.7 km/h 3.7 km/h 65 % 0.0 mm
22:08 20.2 °C 13.4 °C 1017.8 hPa East 1.9 km/h 2.3 km/h 65 % 0.0 mm
22:10 16.8 °C 13.1 °C 1017.8 hPa ENE 1.6 km/h 1.6 km/h 79 % 0.0 mm
22:13 20.2 °C 13.4 °C 1017.8 hPa NE 3.7 km/h 3.7 km/h 65 % 0.0 mm
22:18 20.1 °C 13.6 °C 1017.8 hPa NE 2.6 km/h   66 % 0.0 mm
22:20 16.8 °C 13.1 °C 1017.8 hPa ENE 1.6 km/h 1.6 km/h 79 % 0.0 mm
22:23 20.0 °C 13.4 °C 1017.8 hPa NE 3.7 km/h 3.7 km/h 66 % 0.0 mm
22:28 20.0 °C 13.4 °C 1017.8 hPa NE 3.7 km/h 3.7 km/h 66 % 0.0 mm
22:30 16.6 °C 12.9 °C 1018.8 hPa ESE 1.6 km/h 3.2 km/h 79 % 0.0 mm
22:33 20.0 °C 13.4 °C 1017.8 hPa ENE 3.7 km/h 3.7 km/h 66 % 0.0 mm
22:38 20.0 °C 13.4 °C 1017.8 hPa NE 3.7 km/h 3.7 km/h 66 % 0.0 mm
22:40 16.2 °C 12.6 °C 1018.8 hPa Calm   3.2 km/h 79 % 0.0 mm
22:44 19.9 °C 13.6 °C 1017.8 hPa ENE 3.7 km/h 3.7 km/h 67 % 0.0 mm
22:49 19.9 °C 13.6 °C 1017.8 hPa ENE 2.3 km/h 2.3 km/h 67 % 0.0 mm
22:50 16.0 °C 12.3 °C 1018.8 hPa Calm   3.2 km/h 79 % 0.0 mm
22:54 19.8 °C 13.5 °C 1018.8 hPa NE 3.7 km/h   67 % 0.0 mm
22:59 19.8 °C 13.5 °C 1018.8 hPa ENE 3.7 km/h 3.7 km/h 67 % 0.0 mm
23:00 15.8 °C 12.2 °C 1018.8 hPa Calm     79 % 0.0 mm
23:04 19.7 °C 13.4 °C 1018.8 hPa NE 3.9 km/h 3.9 km/h 67 % 0.0 mm
23:09 19.6 °C 13.6 °C 1018.8 hPa NNE 3.9 km/h 3.9 km/h 68 % 0.0 mm
23:10 15.8 °C 12.3 °C 1017.8 hPa Calm     80 % 0.0 mm
23:14 19.6 °C 13.6 °C 1018.8 hPa NE 1.9 km/h   68 % 0.0 mm
23:19 19.5 °C 13.4 °C 1018.8 hPa ENE 2.3 km/h 2.3 km/h 68 % 0.0 mm
23:20 15.8 °C 12.3 °C 1017.8 hPa Calm     80 % 0.0 mm
23:24 19.5 °C 13.4 °C 1018.8 hPa NE 2.3 km/h 2.3 km/h 68 % 0.0 mm
23:29 19.4 °C 13.3 °C 1018.8 hPa NE 1.9 km/h   68 % 0.0 mm
23:30 15.7 °C 12.3 °C 1017.8 hPa Calm     80 % 0.0 mm
23:34 19.4 °C 13.3 °C 1018.8 hPa NNE 3.7 km/h 3.7 km/h 68 % 0.0 mm
23:39 19.3 °C 13.4 °C 1018.8 hPa NNE 3.7 km/h 3.7 km/h 69 % 0.0 mm
23:40 15.6 °C 12.2 °C 1017.8 hPa Calm     80 % 0.0 mm
23:44 19.2 °C 13.4 °C 1018.8 hPa NNE 2.3 km/h 2.3 km/h 69 % 0.0 mm
23:49 19.1 °C 13.5 °C 1018.8 hPa ENE 3.7 km/h 3.7 km/h 70 % 0.0 mm
23:50 15.6 °C 12.2 °C 1017.8 hPa SW 1.6 km/h 3.2 km/h 80 % 0.0 mm
23:54 19.0 °C 13.4 °C 1018.8 hPa NNW 1.9 km/h   70 % 0.0 mm
23:59 18.9 °C 13.5 °C 1018.8 hPa NNE 1.9 km/h   71 % 0.0 mm
Meteo Sesrovires
Elogis d' Weather Underground - 3.5 mb

Guio original per  Jim McMurry - jmcmurry@mwt.net Adaptat per a la plantilla per  Wim van der Kuil - Leuven-Template.eu

Trobareu la nostra informacio del temps tambe a:

Weather Underground

AWEKAS